Time;durP1;ratioP1;P1;durP2;ratioP2;P2;SDS_P1;SDS_P2;PMS_P1;PMS_P2;Temp;Humidity;BMP_temperature;BMP_pressure;BME280_temperature;BME280_humidity;BME280_pressure;Samples;Min_cycle;Max_cycle;Signal;HPM_P1;HPM_P2
2022/12/02 00:01:27;;;;;;;19.10;13.45;;;20.70;63.40;;;;;;5022781;27;88457;-85
2022/12/02 00:03:54;;;;;;;19.80;13.07;;;20.70;62.60;;;;;;5022779;28;90229;-85
2022/12/02 00:06:30;;;;;;;20.00;13.30;;;20.70;62.60;;;;;;5022280;28;87154;-85
2022/12/02 00:09:04;;;;;;;17.50;12.43;;;20.70;62.50;;;;;;5025072;27;87610;-85
2022/12/02 00:11:31;;;;;;;18.35;12.85;;;20.70;62.60;;;;;;5025916;28;88909;-85
2022/12/02 00:13:59;;;;;;;18.42;12.48;;;20.60;62.40;;;;;;5026268;27;88208;-85
2022/12/02 00:16:25;;;;;;;19.92;13.40;;;20.60;62.40;;;;;;5024350;28;88597;-85
2022/12/02 00:18:52;;;;;;;18.95;13.13;;;20.60;62.60;;;;;;5025792;28;87476;-85
2022/12/02 00:21:21;;;;;;;19.13;12.98;;;20.60;62.60;;;;;;5026800;27;89222;-85
2022/12/02 00:23:47;;;;;;;19.65;13.80;;;20.60;62.60;;;;;;5024781;28;88274;-86
2022/12/02 00:26:13;;;;;;;19.60;13.40;;;20.60;62.80;;;;;;5025948;27;87192;-88
2022/12/02 00:28:38;;;;;;;20.60;13.63;;;20.60;62.60;;;;;;5018851;27;87551;-86
2022/12/02 00:31:04;;;;;;;20.42;14.07;;;20.50;62.60;;;;;;5037854;27;89257;-86
2022/12/02 00:33:30;;;;;;;17.23;12.40;;;20.50;62.60;;;;;;5023299;27;90394;-87
2022/12/02 00:35:56;;;;;;;17.80;12.60;;;20.50;62.60;;;;;;5024559;27;86981;-86
2022/12/02 00:38:21;;;;;;;19.33;13.40;;;20.50;62.50;;;;;;5027612;27;87327;-87
2022/12/02 00:40:47;;;;;;;19.42;13.68;;;20.50;62.60;;;;;;5015837;27;89486;-87
2022/12/02 00:48:41;;;;;;;18.60;12.90;;;20.50;62.40;;;;;;5026409;27;87303;-87
2022/12/02 00:51:07;;;;;;;18.08;12.85;;;20.50;62.50;;;;;;5024213;28;88655;-86
2022/12/02 00:53:32;;;;;;;20.02;13.48;;;20.40;62.50;;;;;;5025774;28;90667;-86
2022/12/02 00:55:58;;;;;;;19.15;13.38;;;20.40;62.40;;;;;;5024222;28;87327;-86
2022/12/02 00:58:24;;;;;;;18.35;13.50;;;20.40;62.40;;;;;;5022064;28;90436;-87
2022/12/02 01:00:50;;;;;;;20.55;13.90;;;20.40;62.50;;;;;;5026081;28;88563;-87
2022/12/02 01:03:15;;;;;;;17.80;13.35;;;20.40;62.30;;;;;;5024438;28;89015;-87
2022/12/02 01:05:41;;;;;;;19.50;13.07;;;20.40;62.40;;;;;;5024562;27;88138;-86
2022/12/02 01:08:07;;;;;;;20.90;13.95;;;20.40;62.50;;;;;;5023529;27;87455;-86
2022/12/02 01:10:32;;;;;;;18.92;13.20;;;20.40;62.50;;;;;;5025938;27;88651;-86
2022/12/02 01:12:58;;;;;;;19.80;13.38;;;20.40;62.60;;;;;;5025827;28;88472;-86
2022/12/02 01:15:24;;;;;;;17.95;13.43;;;20.40;62.50;;;;;;5024949;28;86956;-87
2022/12/02 01:17:49;;;;;;;17.73;13.30;;;20.30;62.50;;;;;;5024547;28;87465;-87
2022/12/02 01:20:15;;;;;;;17.35;12.85;;;20.30;63.10;;;;;;5023798;27;88812;-86
2022/12/02 01:22:40;;;;;;;16.25;12.57;;;20.30;62.40;;;;;;5023997;27;88265;-86
2022/12/02 01:25:06;;;;;;;17.50;13.48;;;20.30;62.20;;;;;;5026601;28;86855;-87
2022/12/02 01:27:32;;;;;;;19.80;14.10;;;20.30;62.10;;;;;;5024264;27;87272;-86
2022/12/02 01:29:58;;;;;;;18.80;13.65;;;20.30;62.20;;;;;;5024229;27;89520;-87
2022/12/02 01:32:24;;;;;;;19.00;13.80;;;20.30;62.20;;;;;;5015409;27;89263;-87
2022/12/02 01:34:49;;;;;;;20.00;14.07;;;20.30;62.10;;;;;;5024385;27;87124;-87
2022/12/02 01:37:15;;;;;;;17.58;13.55;;;20.30;62.20;;;;;;5024610;28;88059;-86
2022/12/02 01:39:41;;;;;;;18.92;13.55;;;20.30;62.10;;;;;;5027520;27;88773;-87
2022/12/02 01:42:07;;;;;;;19.35;14.30;;;20.30;62.10;;;;;;5024423;27;88333;-86
2022/12/02 01:44:33;;;;;;;18.23;13.52;;;20.20;62.10;;;;;;5025711;27;87286;-88
2022/12/02 01:46:59;;;;;;;19.90;13.02;;;20.20;62.10;;;;;;5024760;27;87378;-86
2022/12/02 01:49:25;;;;;;;19.45;13.43;;;20.20;62.10;;;;;;5023112;28;90493;-86
2022/12/02 01:51:51;;;;;;;17.20;12.93;;;20.20;61.80;;;;;;5025154;28;88387;-86
2022/12/02 01:54:17;;;;;;;19.33;13.85;;;20.20;61.90;;;;;;5023600;27;88333;-87
2022/12/02 01:56:43;;;;;;;18.15;13.68;;;20.20;62.10;;;;;;5022128;28;89603;-87
2022/12/02 01:59:11;;;;;;;19.15;13.82;;;20.20;61.80;;;;;;5024539;27;87543;-86
2022/12/02 02:01:37;;;;;;;16.67;13.15;;;20.20;61.90;;;;;;5024435;28;88735;-87
2022/12/02 02:04:03;;;;;;;18.33;14.15;;;20.20;61.90;;;;;;5024960;28;87479;-87
2022/12/02 02:06:32;;;;;;;16.95;13.50;;;20.20;61.80;;;;;;5023766;27;87190;-86
2022/12/02 02:08:58;;;;;;;16.83;13.30;;;20.20;61.80;;;;;;5024217;28;87461;-87
2022/12/02 02:11:24;;;;;;;19.13;14.43;;;20.10;61.80;;;;;;5023124;27;88468;-86
2022/12/02 02:13:50;;;;;;;19.42;14.38;;;20.10;61.70;;;;;;5024730;28;87490;-87
2022/12/02 02:16:16;;;;;;;16.60;12.65;;;20.10;62.00;;;;;;5024824;28;87370;-87
2022/12/02 02:18:42;;;;;;;18.33;13.60;;;20.10;61.80;;;;;;5024895;27;89574;-87
2022/12/02 02:21:15;;;;;;;17.88;13.68;;;20.10;62.00;;;;;;5024756;28;89368;-86
2022/12/02 02:23:43;;;;;;;19.25;14.15;;;20.10;61.90;;;;;;5014614;27;87135;-87
2022/12/02 02:26:08;;;;;;;18.67;13.73;;;20.10;62.00;;;;;;5024269;27;87739;-87
2022/12/02 02:28:34;;;;;;;16.88;13.48;;;20.00;61.90;;;;;;5013855;27;88715;-87
2022/12/02 02:31:00;;;;;;;18.98;14.45;;;20.00;61.90;;;;;;5036296;27;87681;-87
2022/12/02 02:33:29;;;;;;;21.00;13.85;;;20.00;61.90;;;;;;5022931;28;86927;-86
2022/12/02 02:35:55;;;;;;;18.23;13.82;;;20.00;61.70;;;;;;5024483;27;87201;-86
2022/12/02 02:38:23;;;;;;;20.23;14.45;;;20.00;61.90;;;;;;5023918;27;89263;-87
2022/12/02 02:40:51;;;;;;;17.63;12.88;;;20.00;61.70;;;;;;5023716;28;87890;-87
2022/12/02 02:43:19;;;;;;;22.08;15.10;;;20.00;61.90;;;;;;5022072;28;88182;-87
2022/12/02 02:45:45;;;;;;;17.20;14.18;;;20.00;61.90;;;;;;5023640;28;87158;-86
2022/12/02 02:48:12;;;;;;;20.75;13.73;;;20.00;61.90;;;;;;5022806;27;88896;-87
2022/12/02 02:50:41;;;;;;;19.10;13.65;;;20.00;61.60;;;;;;5020184;28;91032;-86
2022/12/02 02:53:07;;;;;;;18.50;14.57;;;20.00;61.70;;;;;;5023262;27;87651;-86
2022/12/02 02:55:33;;;;;;;16.85;13.40;;;20.00;61.70;;;;;;5021212;27;90630;-86
2022/12/02 02:58:14;;;;;;;17.05;13.18;;;19.90;61.80;;;;;;5022777;28;88640;-86
2022/12/02 03:00:42;;;;;;;18.38;13.73;;;19.90;61.50;;;;;;5022947;28;90277;-87
2022/12/02 03:03:11;;;;;;;17.73;14.10;;;19.90;61.80;;;;;;5023253;27;86968;-86
2022/12/02 03:05:38;;;;;;;15.55;12.85;;;19.90;61.60;;;;;;5022935;27;87772;-87
2022/12/02 03:08:04;;;;;;;19.25;13.95;;;19.90;61.50;;;;;;5021896;27;89919;-86
2022/12/02 03:10:30;;;;;;;16.92;13.63;;;19.90;61.60;;;;;;5023036;27;89657;-86
2022/12/02 03:12:57;;;;;;;18.02;14.27;;;19.90;61.70;;;;;;5024098;27;87370;-87
2022/12/02 03:15:26;;;;;;;16.92;13.75;;;19.90;61.60;;;;;;5023206;28;87354;-86
2022/12/02 03:17:52;;;;;;;;;;;19.90;61.50;;;;;;5022076;27;92373;-87
2022/12/02 03:20:18;;;;;;;17.65;13.30;;;19.90;61.60;;;;;;5024932;28;94240;-87
2022/12/02 03:22:44;;;;;;;17.00;13.38;;;19.90;61.40;;;;;;5023523;27;87389;-87
2022/12/02 03:25:10;;;;;;;17.33;13.88;;;19.90;61.40;;;;;;5024406;27;87512;-87
2022/12/02 03:27:36;;;;;;;18.02;13.90;;;19.90;61.40;;;;;;5027679;27;88367;-86
2022/12/02 03:30:02;;;;;;;18.67;14.20;;;19.80;61.60;;;;;;5023607;28;88288;-87
2022/12/02 03:32:31;;;;;;;19.63;13.20;;;19.80;61.50;;;;;;5021931;27;88275;-87
2022/12/02 03:34:57;;;;;;;16.48;13.23;;;19.80;61.40;;;;;;5021282;27;87684;-87
2022/12/02 03:37:22;;;;;;;18.50;13.57;;;19.80;61.30;;;;;;5023387;28;88149;-87
2022/12/02 03:39:49;;;;;;;17.25;13.63;;;19.80;61.50;;;;;;5023730;27;92374;-86
2022/12/02 03:42:15;;;;;;;17.83;14.20;;;19.80;61.60;;;;;;5024163;27;87330;-87
2022/12/02 03:44:41;;;;;;;18.27;13.57;;;19.80;61.40;;;;;;5021878;27;87358;-86
2022/12/02 03:47:07;;;;;;;16.63;13.27;;;19.80;61.40;;;;;;5022270;27;88559;-87
2022/12/02 03:49:34;;;;;;;18.08;13.68;;;19.70;61.30;;;;;;5022512;28;88047;-86
2022/12/02 03:51:59;;;;;;;16.92;13.43;;;19.70;61.40;;;;;;5022904;28;87235;-86
2022/12/02 03:54:25;;;;;;;17.38;13.98;;;19.70;61.40;;;;;;5022861;27;87797;-87
2022/12/02 03:56:51;;;;;;;17.58;13.30;;;19.70;61.40;;;;;;5021963;27;88683;-86
2022/12/02 03:59:26;;;;;;;18.92;14.30;;;19.70;61.60;;;;;;5022693;28;89442;-86
2022/12/02 04:01:53;;;;;;;16.27;12.75;;;19.70;61.30;;;;;;5021390;28;87869;-86
2022/12/02 04:04:18;;;;;;;18.08;13.85;;;19.70;61.50;;;;;;5023090;28;87349;-87
2022/12/02 04:06:44;;;;;;;19.20;14.60;;;19.70;61.30;;;;;;5020999;28;90809;-87
2022/12/02 04:09:09;;;;;;;16.75;13.45;;;19.70;61.40;;;;;;5021495;27;88869;-87
2022/12/02 04:11:35;;;;;;;19.13;13.45;;;19.70;61.30;;;;;;5022783;28;88170;-87
2022/12/02 04:14:00;;;;;;;17.55;13.88;;;19.70;61.40;;;;;;5019557;28;87102;-87
2022/12/02 04:16:37;;;;;;;18.25;13.88;;;19.70;61.40;;;;;;5019397;28;87574;-86
2022/12/02 04:19:03;;;;;;;16.77;13.57;;;19.70;61.30;;;;;;5020191;27;88478;-86
2022/12/02 04:21:28;;;;;;;16.35;13.20;;;19.70;61.30;;;;;;5018744;27;88593;-87
2022/12/02 04:23:54;;;;;;;17.67;13.77;;;19.70;61.30;;;;;;5019158;27;87554;-86
2022/12/02 04:26:20;;;;;;;14.85;12.57;;;19.70;61.30;;;;;;5020387;28;87613;-87
2022/12/02 04:28:45;;;;;;;17.02;13.73;;;19.60;62.00;;;;;;5021983;28;88144;-86
2022/12/02 04:31:11;;;;;;;17.38;13.80;;;19.70;61.40;;;;;;5022904;28;87652;-87
2022/12/02 04:33:37;;;;;;;16.85;13.80;;;19.60;61.20;;;;;;5021186;27;87231;-87
2022/12/02 04:36:03;;;;;;;17.58;13.95;;;19.60;61.30;;;;;;5022775;28;88039;-87
2022/12/02 04:38:28;;;;;;;16.33;12.82;;;19.60;61.40;;;;;;5021581;28;86779;-86
2022/12/02 04:40:54;;;;;;;18.42;14.05;;;19.60;61.10;;;;;;5023406;28;87582;-86
2022/12/02 04:43:19;;;;;;;17.15;13.98;;;19.60;61.30;;;;;;5022351;28;87577;-86
2022/12/02 04:45:45;;;;;;;17.65;13.68;;;19.60;61.30;;;;;;5021922;27;89964;-87
2022/12/02 04:48:10;;;;;;;16.52;12.90;;;19.60;61.20;;;;;;5023022;27;88477;-87
2022/12/02 04:50:36;;;;;;;16.73;13.63;;;19.60;61.30;;;;;;5022156;27;87463;-86
2022/12/02 04:53:02;;;;;;;16.05;12.60;;;19.60;61.10;;;;;;5023134;27;87602;-87
2022/12/02 04:55:27;;;;;;;15.68;13.18;;;19.60;61.40;;;;;;5026258;27;88581;-86
2022/12/02 04:57:53;;;;;;;17.70;14.45;;;19.60;61.30;;;;;;5025220;27;88331;-86
2022/12/02 05:00:19;;;;;;;14.98;12.45;;;19.60;61.20;;;;;;5025644;27;87030;-87
2022/12/02 05:02:44;;;;;;;18.65;14.30;;;19.60;61.10;;;;;;5026025;27;87530;-86
2022/12/02 05:05:19;;;;;;;17.35;14.10;;;19.50;61.20;;;;;;5024895;27;87260;-86
2022/12/02 05:07:45;;;;;;;16.30;13.02;;;19.50;61.30;;;;;;5025516;27;88246;-86
2022/12/02 05:10:11;;;;;;;17.05;13.55;;;19.50;61.10;;;;;;5025165;28;89100;-86
2022/12/02 05:12:36;;;;;;;16.48;13.00;;;19.50;61.10;;;;;;5024642;27;87198;-86
2022/12/02 05:15:02;;;;;;;17.25;13.55;;;19.50;61.80;;;;;;5025367;28;88997;-86
2022/12/02 05:17:29;;;;;;;17.50;13.50;;;19.50;61.20;;;;;;5025115;28;87827;-86
2022/12/02 05:19:55;;;;;;;17.20;13.45;;;19.50;61.20;;;;;;5024078;27;88282;-86
2022/12/02 05:22:21;;;;;;;16.55;13.85;;;19.50;61.20;;;;;;5024052;28;90457;-85
2022/12/02 05:24:47;;;;;;;18.52;13.82;;;19.50;61.30;;;;;;5024663;27;88459;-86
2022/12/02 05:27:13;;;;;;;17.10;13.57;;;19.50;61.20;;;;;;5025416;27;88286;-86
2022/12/02 05:29:38;;;;;;;15.88;13.32;;;19.50;61.10;;;;;;5023932;28;87058;-85
2022/12/02 05:32:04;;;;;;;19.17;14.50;;;19.50;61.10;;;;;;5025123;27;88316;-86
2022/12/02 05:34:30;;;;;;;17.35;14.25;;;19.40;61.10;;;;;;5023590;28;88339;-86
2022/12/02 05:36:55;;;;;;;16.00;13.05;;;19.40;61.00;;;;;;5024885;28;89179;-86
2022/12/02 05:39:21;;;;;;;16.73;13.68;;;19.50;61.00;;;;;;5026719;27;87801;-86
2022/12/02 05:41:47;;;;;;;16.77;13.30;;;19.40;60.80;;;;;;5025906;27;87231;-86
2022/12/02 05:44:26;;;;;;;17.25;13.65;;;19.50;60.90;;;;;;5024100;27;88345;-86
2022/12/02 05:46:57;;;;;;;17.00;13.40;;;19.40;60.90;;;;;;5023864;27;88630;-86
2022/12/02 05:49:23;;;;;;;16.83;13.00;;;19.40;61.00;;;;;;5023986;27;87808;-86
2022/12/02 05:51:55;;;;;;;16.67;12.95;;;19.40;60.80;;;;;;5025791;28;87303;-86
2022/12/02 05:54:21;;;;;;;16.50;13.00;;;19.40;61.00;;;;;;5023030;28;90046;-86
2022/12/02 05:56:47;;;;;;;15.98;13.25;;;19.40;61.00;;;;;;5024512;27;87838;-86
2022/12/02 05:59:16;;;;;;;16.33;13.55;;;19.40;60.90;;;;;;5024417;27;95411;-86
2022/12/02 06:01:45;;;;;;;16.63;13.18;;;19.40;60.90;;;;;;5023989;28;87415;-85
2022/12/02 06:04:18;;;;;;;15.68;12.75;;;19.40;61.00;;;;;;5026119;28;88320;-86
2022/12/02 06:06:44;;;;;;;16.35;12.80;;;19.40;60.80;;;;;;5023900;27;88463;-86
2022/12/02 06:09:19;;;;;;;15.68;13.23;;;19.40;60.90;;;;;;5023256;27;87429;-86
2022/12/02 06:11:46;;;;;;;16.13;13.02;;;19.40;60.90;;;;;;5024048;27;87895;-86
2022/12/02 06:14:24;;;;;;;15.80;13.25;;;19.40;60.80;;;;;;5024712;28;88722;-86
2022/12/02 06:16:56;;;;;;;16.15;13.13;;;19.30;60.70;;;;;;5022634;28;89002;-87
2022/12/02 06:19:45;;;;;;;15.35;12.38;;;19.40;60.80;;;;;;5024446;28;87302;-86
2022/12/02 06:22:17;;;;;;;16.10;12.73;;;19.30;60.80;;;;;;5024923;27;91507;-86
2022/12/02 06:24:43;;;;;;;17.20;13.35;;;19.30;60.70;;;;;;5024260;27;88897;-86
2022/12/02 06:27:27;;;;;;;14.45;12.25;;;19.30;60.80;;;;;;5023981;28;88818;-86
2022/12/02 06:30:00;;;;;;;14.55;12.52;;;19.30;60.70;;;;;;5024496;28;88972;-86
2022/12/02 06:32:36;;;;;;;17.65;14.35;;;19.30;60.70;;;;;;5023981;27;87073;-86
2022/12/02 06:35:15;;;;;;;17.20;12.82;;;19.30;60.90;;;;;;5018942;27;87810;-86
2022/12/02 06:37:42;;;;;;;14.63;12.33;;;19.30;60.80;;;;;;5031860;27;87850;-86
2022/12/02 06:40:27;;;;;;;16.92;12.35;;;19.30;60.70;;;;;;5023607;28;87258;-86
2022/12/02 06:42:53;;;;;;;16.83;13.60;;;19.20;60.60;;;;;;5005536;28;90748;-86
2022/12/02 06:45:30;;;;;;;15.88;12.80;;;19.30;60.70;;;;;;5019742;27;89064;-87
2022/12/02 06:48:31;;;;;;;14.95;12.90;;;19.20;60.80;;;;;;5023629;27;88458;-87
2022/12/02 06:51:19;;;;;;;14.48;12.73;;;19.20;60.60;;;;;;5019985;28;88367;-86
2022/12/02 06:53:45;;;;;;;16.42;13.40;;;19.20;60.70;;;;;;5021931;27;87410;-86
2022/12/02 06:56:17;;;;;;;15.55;12.77;;;19.30;60.70;;;;;;5022181;28;89235;-86
2022/12/02 06:58:45;;;;;;;15.45;12.38;;;19.20;60.70;;;;;;5022956;27;86979;-85
2022/12/02 07:01:18;;;;;;;14.50;12.30;;;19.20;60.90;;;;;;5024204;28;87009;-86
2022/12/02 07:03:48;;;;;;;13.90;12.20;;;19.20;60.80;;;;;;5022608;28;90591;-86
2022/12/02 07:06:22;;;;;;;13.82;11.55;;;19.20;60.80;;;;;;5021178;28;90928;-86
2022/12/02 07:08:48;;;;;;;15.55;12.88;;;19.20;60.70;;;;;;5022884;28;88320;-86
2022/12/02 07:14:19;;;;;;;;;;;19.20;60.80;;;;;;5023349;28;87489;-86
2022/12/02 07:16:45;;;;;;;16.13;13.32;;;19.20;60.70;;;;;;5022547;27;89167;-86
2022/12/02 07:19:16;;;;;;;15.70;13.05;;;19.20;60.70;;;;;;5023063;28;89426;-87
2022/12/02 07:21:42;;;;;;;15.50;12.13;;;19.20;60.80;;;;;;5023148;27;87338;-86
2022/12/02 07:24:16;;;;;;;15.88;12.70;;;19.10;60.60;;;;;;5023127;27;87528;-86
2022/12/02 07:26:44;;;;;;;15.10;12.35;;;19.10;60.70;;;;;;5020988;28;89288;-86
2022/12/02 07:29:14;;;;;;;14.23;12.05;;;19.10;60.50;;;;;;5023448;27;87989;-86
2022/12/02 07:31:43;;;;;;;14.20;11.60;;;19.10;60.50;;;;;;5022903;27;87316;-86
2022/12/02 07:34:11;;;;;;;15.20;12.23;;;19.10;60.50;;;;;;5024831;28;87364;-86
2022/12/02 07:36:36;;;;;;;15.48;12.93;;;19.10;60.70;;;;;;5021916;27;89001;-86
2022/12/02 07:39:02;;;;;;;14.65;11.93;;;19.10;60.60;;;;;;5012580;27;88431;-86
2022/12/02 07:41:28;;;;;;;15.05;12.35;;;19.10;60.50;;;;;;5021846;27;88171;-87
2022/12/02 07:43:54;;;;;;;14.98;12.30;;;19.10;60.50;;;;;;5022854;27;87579;-86
2022/12/02 07:46:19;;;;;;;16.08;12.10;;;19.10;60.40;;;;;;5022991;27;88144;-86
2022/12/02 07:48:45;;;;;;;18.52;13.25;;;19.20;59.90;;;;;;5021980;27;89018;-86
2022/12/02 07:51:11;;;;;;;15.65;12.88;;;19.10;58.80;;;;;;5023045;27;86878;-88
2022/12/02 07:53:36;;;;;;;15.13;12.68;;;19.10;59.80;;;;;;5022054;27;87457;-87
2022/12/02 07:56:03;;;;;;;15.65;12.38;;;19.10;60.00;;;;;;5022077;28;88444;-87
2022/12/02 07:58:29;;;;;;;14.75;13.00;;;19.20;59.90;;;;;;5029853;27;88112;-88
2022/12/02 08:00:54;;;;;;;17.33;12.88;;;19.30;59.60;;;;;;5025230;28;87048;-88
2022/12/02 08:03:20;;;;;;;16.42;13.13;;;19.40;59.60;;;;;;5019665;28;88302;-88
2022/12/02 08:05:45;;;;;;;14.57;12.45;;;19.50;59.70;;;;;;5017787;27;89556;-87
2022/12/02 08:08:23;;;;;;;17.00;12.70;;;19.70;59.70;;;;;;5018612;28;89052;-88
2022/12/02 08:10:48;;;;;;;18.38;13.35;;;19.90;59.50;;;;;;5021026;27;87481;-87
2022/12/02 08:13:14;;;;;;;15.82;12.88;;;20.00;59.60;;;;;;5021369;27;87199;-87
2022/12/02 08:15:40;;;;;;;16.90;12.25;;;20.20;59.10;;;;;;5020957;28;88496;-87
2022/12/02 08:18:05;;;;;;;13.75;11.65;;;20.40;58.80;;;;;;5019213;28;90282;-86
2022/12/02 08:20:31;;;;;;;15.35;12.57;;;20.40;58.80;;;;;;5021687;28;87144;-86
2022/12/02 08:22:57;;;;;;;17.75;12.75;;;20.50;59.00;;;;;;5019638;28;86718;-87
2022/12/02 08:25:23;;;;;;;14.00;11.55;;;20.50;58.80;;;;;;5022301;27;88024;-85
2022/12/02 08:27:49;;;;;;;16.27;11.82;;;20.60;58.80;;;;;;5020754;27;88335;-86
2022/12/02 08:30:16;;;;;;;16.02;11.70;;;20.50;58.80;;;;;;5014221;27;88476;-86
2022/12/02 08:32:42;;;;;;;15.77;11.73;;;20.60;58.80;;;;;;5014400;27;88905;-86
2022/12/02 08:35:07;;;;;;;15.68;12.02;;;20.60;58.80;;;;;;5025455;27;88641;-86
2022/12/02 08:37:33;;;;;;;16.10;12.45;;;20.60;59.00;;;;;;5026047;27;91454;-86
2022/12/02 08:39:59;;;;;;;16.63;11.32;;;20.50;58.80;;;;;;5027025;27;87412;-86
2022/12/02 08:42:24;;;;;;;20.80;12.27;;;20.50;59.00;;;;;;5026966;27;87339;-86
2022/12/02 08:44:50;;;;;;;17.23;12.05;;;20.60;58.90;;;;;;5021959;27;92778;-86
2022/12/02 08:47:15;;;;;;;17.05;12.13;;;20.60;58.90;;;;;;5025678;27;88406;-85
2022/12/02 08:49:41;;;;;;;15.38;12.00;;;20.50;59.00;;;;;;5025622;27;87301;-86
2022/12/02 08:52:07;;;;;;;17.20;12.40;;;20.50;59.10;;;;;;5026416;28;88645;-85
2022/12/02 08:54:33;;;;;;;14.95;11.23;;;20.40;59.20;;;;;;5024124;28;89241;-86
2022/12/02 08:57:01;;;;;;;14.90;11.82;;;20.40;59.30;;;;;;5025572;27;89390;-86
2022/12/02 08:59:26;;;;;;;14.52;11.82;;;20.40;59.20;;;;;;5026432;28;87119;-86
2022/12/02 09:01:53;;;;;;;14.98;11.02;;;20.40;59.40;;;;;;5024865;27;88048;-86
2022/12/02 09:04:18;;;;;;;15.40;11.30;;;20.40;59.60;;;;;;5025556;28;90275;-86
2022/12/02 09:06:45;;;;;;;14.10;10.80;;;20.40;59.60;;;;;;5025966;27;87953;-86
2022/12/02 09:09:11;;;;;;;16.42;10.88;;;20.40;59.40;;;;;;5021871;28;87149;-86
2022/12/02 09:11:36;;;;;;;19.00;12.20;;;20.50;59.30;;;;;;5024418;28;86988;-85
2022/12/02 09:14:02;;;;;;;15.65;11.20;;;20.50;59.10;;;;;;5024652;27;88689;-86
2022/12/02 09:16:27;;;;;;;14.60;11.20;;;20.40;59.30;;;;;;5022215;28;89725;-87
2022/12/02 09:18:54;;;;;;;42.42;17.30;;;20.30;59.30;;;;;;5024754;28;88109;-85
2022/12/02 09:21:21;;;;;;;54.65;21.00;;;20.40;59.00;;;;;;5025316;27;87295;-86
2022/12/02 09:23:46;;;;;;;56.53;22.27;;;20.30;58.40;;;;;;5025293;28;88750;-86
2022/12/02 09:26:12;;;;;;;54.60;22.02;;;20.30;58.00;;;;;;5017467;27;88874;-87
2022/12/02 09:28:37;;;;;;;52.55;21.63;;;20.30;58.80;;;;;;5032220;27;87622;-87
2022/12/02 09:31:03;;;;;;;43.92;19.95;;;20.30;60.10;;;;;;5023987;28;87354;-86
2022/12/02 09:33:29;;;;;;;44.30;20.90;;;20.30;61.40;;;;;;5014250;27;90387;-87
2022/12/02 09:35:54;;;;;;;40.67;20.95;;;20.30;61.60;;;;;;5024078;27;87540;-87
2022/12/02 09:38:20;;;;;;;38.28;19.65;;;20.30;62.10;;;;;;5014560;27;87589;-87
2022/12/02 09:40:46;;;;;;;43.70;22.58;;;20.40;60.90;;;;;;5021998;27;87157;-86
2022/12/02 09:43:12;;;;;;;43.53;22.08;;;20.40;61.20;;;;;;5023726;28;91631;-86
2022/12/02 09:45:38;;;;;;;50.25;23.45;;;20.40;61.70;;;;;;5024836;28;89328;-86
2022/12/02 09:48:03;;;;;;;52.58;22.30;;;20.40;60.60;;;;;;5023423;28;87070;-85
2022/12/02 09:50:29;;;;;;;38.22;19.15;;;20.40;60.70;;;;;;5022054;27;90558;-85
2022/12/02 09:53:03;;;;;;;43.58;21.48;;;20.40;60.20;;;;;;5022562;27;88747;-84
2022/12/02 09:55:29;;;;;;;45.38;20.60;;;20.40;60.30;;;;;;5023204;28;88568;-84
2022/12/02 09:57:55;;;;;;;38.42;20.08;;;20.30;60.20;;;;;;5025033;27;86931;-85
2022/12/02 10:00:22;;;;;;;40.85;20.13;;;20.30;60.40;;;;;;5024891;27;87695;-84
2022/12/02 10:02:50;;;;;;;37.38;18.58;;;20.30;60.40;;;;;;5021353;27;88231;-85
2022/12/02 10:05:29;;;;;;;38.95;19.33;;;20.20;60.40;;;;;;5023340;27;88843;-84
2022/12/02 10:07:57;;;;;;;40.15;19.55;;;20.30;60.20;;;;;;5020892;28;87955;-84
2022/12/02 10:10:27;;;;;;;33.97;18.55;;;20.30;60.40;;;;;;5024307;28;87284;-84
2022/12/02 10:13:01;;;;;;;42.10;19.50;;;20.30;60.30;;;;;;5024412;28;92797;-84
2022/12/02 10:15:30;;;;;;;41.38;19.63;;;20.30;60.40;;;;;;5023419;28;89342;-84
2022/12/02 10:17:58;;;;;;;40.38;19.38;;;20.30;60.30;;;;;;5022377;28;88152;-85
2022/12/02 10:20:26;;;;;;;39.83;19.48;;;20.30;60.30;;;;;;5022935;27;87702;-84
2022/12/02 10:23:18;;;;;;;37.53;19.67;;;20.30;60.20;;;;;;5015432;27;88706;-84
2022/12/02 10:25:53;;;;;;;39.63;18.70;;;20.30;60.30;;;;;;5031913;27;88239;-84
2022/12/02 10:28:25;;;;;;;37.60;18.55;;;20.30;60.10;;;;;;5023379;28;87322;-84
2022/12/02 10:30:55;;;;;;;36.90;19.27;;;20.30;59.90;;;;;;5002561;28;91836;-84
2022/12/02 10:33:26;;;;;;;32.83;18.25;;;20.30;59.80;;;;;;5017754;28;89480;-85
2022/12/02 10:35:53;;;;;;;36.53;17.88;;;20.30;59.90;;;;;;5024114;27;89426;-87
2022/12/02 10:38:41;;;;;;;41.22;17.75;;;20.40;59.80;;;;;;5024940;27;87775;-87
2022/12/02 10:41:23;;;;;;;38.00;18.35;;;20.40;59.60;;;;;;5024348;27;87123;-87
2022/12/02 10:43:52;;;;;;;36.10;18.73;;;20.40;59.40;;;;;;5024751;27;88699;-88
2022/12/02 10:46:21;;;;;;;33.73;17.43;;;20.40;59.50;;;;;;5026093;28;88414;-88
2022/12/02 10:48:48;;;;;;;30.25;17.10;;;20.40;59.40;;;;;;5025253;27;87193;-87
2022/12/02 10:51:19;;;;;;;29.45;17.25;;;20.40;59.40;;;;;;5023860;27;90250;-87
2022/12/02 10:53:48;;;;;;;30.38;17.05;;;20.40;59.60;;;;;;5024436;27;88008;-87
2022/12/02 10:56:24;;;;;;;32.13;17.02;;;20.40;59.50;;;;;;5024414;27;88218;-88
2022/12/02 10:58:51;;;;;;;32.03;16.55;;;20.50;59.50;;;;;;5023901;27;88532;-87
2022/12/02 11:01:19;;;;;;;33.45;17.35;;;20.40;59.40;;;;;;5023845;28;87568;-88
2022/12/02 11:04:40;;;;;;;28.40;16.40;;;20.50;59.50;;;;;;5022995;27;88800;-87
2022/12/02 11:07:17;;;;;;;30.58;16.05;;;20.50;59.50;;;;;;4928286;28;94585;-87
2022/12/02 11:10:26;;;;;;;35.45;16.88;;;20.60;59.30;;;;;;4861576;28;87290;-87
2022/12/02 11:12:54;;;;;;;36.85;18.20;;;20.60;60.00;;;;;;4906201;28;94320;-88
2022/12/02 11:15:39;;;;;;;32.40;17.13;;;20.60;58.70;;;;;;4906190;28;91311;-88
2022/12/02 11:19:16;;;;;;;;;;;;;;;;;;;;;
2022/12/02 11:22:39;;;;;;;29.08;16.30;;;20.60;59.20;;;;;;4918866;28;87832;-88
2022/12/02 11:25:57;;;;;;;27.65;15.02;;;20.60;59.20;;;;;;4904248;28;87803;-88
2022/12/02 11:28:28;;;;;;;26.92;15.18;;;20.70;59.10;;;;;;4822777;28;94012;-87
2022/12/02 11:31:09;;;;;;;27.85;14.90;;;20.80;59.10;;;;;;4864941;28;88570;-88
2022/12/02 11:34:01;;;;;;;25.35;15.35;;;20.90;59.00;;;;;;4817986;28;87429;-88
2022/12/02 11:36:29;;;;;;;27.73;15.30;;;21.00;59.10;;;;;;4844786;28;89256;-88
2022/12/02 11:39:11;;;;;;;27.57;15.40;;;21.00;59.10;;;;;;4881282;28;91228;-88
2022/12/02 11:41:48;;;;;;;31.90;15.27;;;21.10;59.00;;;;;;4899192;28;88326;-86
2022/12/02 11:44:29;;;;;;;33.28;15.55;;;21.00;59.00;;;;;;4939995;28;87741;-86
2022/12/02 11:46:57;;;;;;;28.75;16.08;;;21.00;58.90;;;;;;4956935;28;86969;-86
2022/12/02 11:49:30;;;;;;;26.13;14.77;;;21.00;58.80;;;;;;4974277;28;91225;-90
2022/12/02 11:52:08;;;;;;;23.38;13.85;;;21.00;58.70;;;;;;5018971;28;93440;-86
2022/12/02 11:54:49;;;;;;;27.98;14.95;;;21.10;58.10;;;;;;4998447;28;88361;-86
2022/12/02 11:57:26;;;;;;;30.40;16.38;;;21.10;58.30;;;;;;5015769;28;88053;-86
2022/12/02 11:59:52;;;;;;;27.35;15.20;;;21.00;58.40;;;;;;5020501;28;87734;-86
2022/12/02 12:02:20;;;;;;;27.48;14.15;;;20.90;58.70;;;;;;5050441;27;88312;-86
2022/12/02 12:04:57;;;;;;;28.25;15.93;;;20.90;58.80;;;;;;5066844;27;86911;-86
2022/12/02 12:07:22;;;;;;;27.38;15.07;;;20.80;58.90;;;;;;5066899;27;87437;-86
2022/12/02 12:09:58;;;;;;;25.13;14.95;;;20.80;59.10;;;;;;5049353;27;93244;-86
2022/12/02 12:12:24;;;;;;;26.98;14.98;;;20.80;59.00;;;;;;5068053;27;89606;-86
2022/12/02 12:15:01;;;;;;;26.95;15.05;;;20.80;59.00;;;;;;5066226;27;87623;-86
2022/12/02 12:17:33;;;;;;;28.05;15.13;;;20.80;59.10;;;;;;5066602;27;87597;-86
2022/12/02 12:19:58;;;;;;;24.00;14.10;;;20.80;59.00;;;;;;5066099;27;89539;-86
2022/12/02 12:22:26;;;;;;;24.00;14.25;;;20.80;58.80;;;;;;5041455;27;91767;-85
2022/12/02 12:24:52;;;;;;;25.80;14.82;;;21.00;58.70;;;;;;5064786;27;87760;-85
2022/12/02 12:27:35;;;;;;;25.60;13.63;;;20.90;58.60;;;;;;5067650;27;87225;-86
2022/12/02 12:30:02;;;;;;;27.60;14.05;;;21.00;58.80;;;;;;5053671;27;88728;-86
2022/12/02 12:32:27;;;;;;;25.75;15.07;;;21.00;58.50;;;;;;5065764;27;88378;-86
2022/12/02 12:34:53;;;;;;;23.60;14.20;;;20.90;58.70;;;;;;5065163;27;90084;-86
2022/12/02 12:37:19;;;;;;;24.50;13.63;;;20.90;58.80;;;;;;5066757;27;87931;-86
2022/12/02 12:39:45;;;;;;;21.27;13.38;;;20.90;58.80;;;;;;5048815;27;88467;-86
2022/12/02 12:42:11;;;;;;;20.95;12.68;;;20.90;58.70;;;;;;5067367;27;88252;-86
2022/12/02 12:44:36;;;;;;;22.95;13.98;;;21.00;58.60;;;;;;5065815;27;88781;-86
2022/12/02 12:47:04;;;;;;;24.80;13.80;;;21.00;58.30;;;;;;5065583;27;87806;-86